BCS421 EBBR-LEBL
Flight info
| Callsign | BCS421 |
|---|---|
| Flight time | 1h 38m |
| Altitude | 33000 |
| Route | CIV N872 LESDO DCT KOVIN DCT DUCRA/N0458F350 UM728 RESMI UN857 DISAK DCT DIRMO DCT VALKU DCT ATSUP DCT MINSO DCT DEGOL DCT PPG DCT ALBER |
| Aircraft | A306/H-SDE3FGHIRWY/LB1 |
Departure
| Time | 2026-05-05 09:04 |
|---|---|
| Airport | Brussels Airport (EBBR) |
Arrival
| Time | 2026-05-05 10:42 |
|---|---|
| Airport | Josep Tarradellas Barcelona-El Prat Airport (LEBL) |
| Time | Latitude | Longitude | Altitude | Speed | Heading |
|---|---|---|---|---|---|
| 2026-05-05 08:40 | 50.90203 | 4.45421 | 137 ft | 0 kts | 335° |
| 2026-05-05 08:50 | 50.90191 | 4.45430 | 137 ft | 2 kts | 335° |
| 2026-05-05 08:50 | 50.90176 | 4.45441 | 137 ft | 2 kts | 335° |
| 2026-05-05 08:51 | 50.90162 | 4.45451 | 138 ft | 2 kts | 335° |
| 2026-05-05 08:51 | 50.90147 | 4.45462 | 138 ft | 2 kts | 335° |
| 2026-05-05 08:51 | 50.90132 | 4.45473 | 139 ft | 2 kts | 335° |
| 2026-05-05 08:51 | 50.90117 | 4.45482 | 139 ft | 2 kts | 16° |
| 2026-05-05 08:52 | 50.90104 | 4.45469 | 140 ft | 2 kts | 65° |
| 2026-05-05 08:52 | 50.90097 | 4.45445 | 140 ft | 2 kts | 66° |
| 2026-05-05 08:52 | 50.90094 | 4.45434 | 140 ft | 0 kts | 66° |
| 2026-05-05 08:54 | 50.90097 | 4.45443 | 140 ft | 2 kts | 66° |
| 2026-05-05 08:55 | 50.90101 | 4.45466 | 140 ft | 2 kts | 73° |
| 2026-05-05 08:55 | 50.90101 | 4.45495 | 140 ft | 3 kts | 98° |
| 2026-05-05 08:55 | 50.90091 | 4.45516 | 141 ft | 2 kts | 143° |
| 2026-05-05 08:55 | 50.90083 | 4.45521 | 141 ft | 1 kts | 157° |
| 2026-05-05 08:56 | 50.90071 | 4.45529 | 141 ft | 4 kts | 157° |
| 2026-05-05 08:56 | 50.90031 | 4.45555 | 143 ft | 9 kts | 158° |
| 2026-05-05 08:56 | 50.89953 | 4.45613 | 142 ft | 16 kts | 153° |
| 2026-05-05 08:56 | 50.89831 | 4.45666 | 142 ft | 21 kts | 175° |
| 2026-05-05 08:57 | 50.89758 | 4.45761 | 140 ft | 11 kts | 69° |
| 2026-05-05 08:57 | 50.89795 | 4.45861 | 138 ft | 11 kts | 65° |
| 2026-05-05 08:57 | 50.89830 | 4.45980 | 135 ft | 14 kts | 65° |
| 2026-05-05 08:57 | 50.89873 | 4.46131 | 133 ft | 16 kts | 65° |
| 2026-05-05 08:58 | 50.89923 | 4.46300 | 126 ft | 18 kts | 64° |
| 2026-05-05 08:58 | 50.89978 | 4.46485 | 124 ft | 19 kts | 64° |
| 2026-05-05 08:58 | 50.90013 | 4.46612 | 127 ft | 20 kts | 67° |
| 2026-05-05 08:58 | 50.90069 | 4.46809 | 130 ft | 19 kts | 65° |
| 2026-05-05 08:59 | 50.90145 | 4.47069 | 130 ft | 20 kts | 65° |
| 2026-05-05 08:59 | 50.90183 | 4.47204 | 129 ft | 20 kts | 66° |
| 2026-05-05 08:59 | 50.90246 | 4.47418 | 125 ft | 22 kts | 64° |
| 2026-05-05 08:59 | 50.90314 | 4.47646 | 122 ft | 23 kts | 68° |
| 2026-05-05 09:00 | 50.90379 | 4.47878 | 125 ft | 22 kts | 64° |
| 2026-05-05 09:00 | 50.90443 | 4.48101 | 128 ft | 22 kts | 66° |
| 2026-05-05 09:00 | 50.90507 | 4.48323 | 125 ft | 23 kts | 65° |
| 2026-05-05 09:00 | 50.90578 | 4.48565 | 121 ft | 25 kts | 66° |
| 2026-05-05 09:01 | 50.90655 | 4.48831 | 117 ft | 27 kts | 65° |
| 2026-05-05 09:01 | 50.90728 | 4.49092 | 117 ft | 25 kts | 65° |
| 2026-05-05 09:01 | 50.90797 | 4.49327 | 118 ft | 23 kts | 64° |
| 2026-05-05 09:01 | 50.90861 | 4.49546 | 117 ft | 21 kts | 66° |
| 2026-05-05 09:02 | 50.90920 | 4.49750 | 113 ft | 21 kts | 62° |
| 2026-05-05 09:02 | 50.91018 | 4.49898 | 112 ft | 19 kts | 27° |
| 2026-05-05 09:02 | 50.91128 | 4.49905 | 110 ft | 14 kts | 304° |
| 2026-05-05 09:02 | 50.91114 | 4.49800 | 110 ft | 7 kts | 246° |
| 2026-05-05 09:03 | 50.91037 | 4.49531 | 116 ft | 57 kts | 244° |
| 2026-05-05 09:03 | 50.90784 | 4.48655 | 120 ft | 116 kts | 245° |
| 2026-05-05 09:03 | 50.90381 | 4.47266 | 123 ft | 165 kts | 245° |
| 2026-05-05 09:03 | 50.89787 | 4.45523 | 465 ft | 188 kts | 240° |
| 2026-05-05 09:04 | 50.89180 | 4.43629 | 1185 ft | 200 kts | 257° |
| 2026-05-05 09:04 | 50.89326 | 4.41487 | 1848 ft | 201 kts | 305° |
| 2026-05-05 09:04 | 50.90374 | 4.40122 | 2673 ft | 191 kts | 338° |
| 2026-05-05 09:04 | 50.91444 | 4.38945 | 3632 ft | 196 kts | 311° |
| 2026-05-05 09:05 | 50.92031 | 4.36738 | 3578 ft | 252 kts | 280° |
| 2026-05-05 09:05 | 50.91870 | 4.33728 | 3561 ft | 292 kts | 255° |
| 2026-05-05 09:05 | 50.90958 | 4.30850 | 4399 ft | 290 kts | 231° |
| 2026-05-05 09:05 | 50.89549 | 4.28681 | 5547 ft | 276 kts | 220° |
| 2026-05-05 09:06 | 50.88106 | 4.26779 | 6669 ft | 263 kts | 219° |
| 2026-05-05 09:06 | 50.86740 | 4.24952 | 7678 ft | 253 kts | 220° |
| 2026-05-05 09:06 | 50.85424 | 4.23144 | 8544 ft | 249 kts | 221° |
| 2026-05-05 09:06 | 50.84129 | 4.21332 | 9328 ft | 248 kts | 221° |
| 2026-05-05 09:07 | 50.82833 | 4.19498 | 9953 ft | 257 kts | 222° |
| 2026-05-05 09:07 | 50.81446 | 4.17523 | 10276 ft | 279 kts | 221° |
| 2026-05-05 09:07 | 50.79953 | 4.15391 | 10591 ft | 300 kts | 221° |
| 2026-05-05 09:07 | 50.78354 | 4.13108 | 10893 ft | 319 kts | 221° |
| 2026-05-05 09:08 | 50.76686 | 4.10724 | 11181 ft | 337 kts | 221° |
| 2026-05-05 09:08 | 50.74905 | 4.08181 | 11464 ft | 354 kts | 221° |
| 2026-05-05 09:08 | 50.73036 | 4.05513 | 11742 ft | 370 kts | 221° |
| 2026-05-05 09:08 | 50.71086 | 4.02730 | 12019 ft | 384 kts | 221° |
| 2026-05-05 09:09 | 50.69071 | 3.99860 | 12453 ft | 393 kts | 221° |
| 2026-05-05 09:09 | 50.67028 | 3.96956 | 13013 ft | 398 kts | 221° |
| 2026-05-05 09:09 | 50.64959 | 3.94015 | 13612 ft | 402 kts | 221° |
| 2026-05-05 09:09 | 50.62867 | 3.91045 | 14166 ft | 406 kts | 221° |
| 2026-05-05 09:10 | 50.60791 | 3.88104 | 14767 ft | 408 kts | 221° |
| 2026-05-05 09:10 | 50.58665 | 3.85126 | 15391 ft | 409 kts | 219° |
| 2026-05-05 09:10 | 50.56320 | 3.82586 | 15995 ft | 409 kts | 208° |
| 2026-05-05 09:10 | 50.53782 | 3.80523 | 16596 ft | 411 kts | 204° |
| 2026-05-05 09:11 | 50.51169 | 3.78687 | 17183 ft | 412 kts | 201° |
| 2026-05-05 09:11 | 50.48511 | 3.76946 | 17756 ft | 415 kts | 200° |
| 2026-05-05 09:11 | 50.45835 | 3.75225 | 18300 ft | 417 kts | 200° |
| 2026-05-05 09:11 | 50.43142 | 3.73478 | 18748 ft | 420 kts | 201° |
| 2026-05-05 09:12 | 50.40433 | 3.71692 | 19174 ft | 423 kts | 201° |
| 2026-05-05 09:12 | 50.37719 | 3.69879 | 19620 ft | 425 kts | 201° |
| 2026-05-05 09:12 | 50.34984 | 3.68038 | 20054 ft | 428 kts | 201° |
| 2026-05-05 09:12 | 50.32280 | 3.66210 | 20471 ft | 430 kts | 202° |
| 2026-05-05 09:13 | 50.29526 | 3.64346 | 20894 ft | 433 kts | 201° |
| 2026-05-05 09:13 | 50.26754 | 3.62471 | 21315 ft | 435 kts | 201° |
| 2026-05-05 09:13 | 50.23967 | 3.60588 | 21727 ft | 438 kts | 201° |
| 2026-05-05 09:13 | 50.21165 | 3.58700 | 22135 ft | 440 kts | 201° |
| 2026-05-05 09:14 | 50.18344 | 3.56802 | 22547 ft | 442 kts | 201° |
| 2026-05-05 09:14 | 50.15510 | 3.54898 | 22968 ft | 444 kts | 201° |
| 2026-05-05 09:14 | 50.12669 | 3.52991 | 23342 ft | 446 kts | 201° |
| 2026-05-05 09:14 | 50.09805 | 3.51073 | 23682 ft | 448 kts | 201° |
| 2026-05-05 09:15 | 50.06940 | 3.49156 | 24032 ft | 449 kts | 201° |
| 2026-05-05 09:15 | 50.04065 | 3.47235 | 24364 ft | 450 kts | 202° |
| 2026-05-05 09:15 | 50.01180 | 3.45310 | 24695 ft | 451 kts | 202° |
| 2026-05-05 09:15 | 49.98284 | 3.43379 | 25030 ft | 452 kts | 202° |
| 2026-05-05 09:16 | 49.95381 | 3.41448 | 25244 ft | 456 kts | 202° |
| 2026-05-05 09:16 | 49.92449 | 3.39501 | 25371 ft | 461 kts | 202° |
| 2026-05-05 09:16 | 49.89494 | 3.37541 | 25692 ft | 461 kts | 202° |
| 2026-05-05 09:16 | 49.86543 | 3.35585 | 26017 ft | 461 kts | 202° |
| 2026-05-05 09:17 | 49.83618 | 3.33649 | 26192 ft | 465 kts | 202° |
| 2026-05-05 09:17 | 49.80635 | 3.31677 | 26402 ft | 467 kts | 202° |
| 2026-05-05 09:17 | 49.77639 | 3.29698 | 26719 ft | 466 kts | 202° |
| 2026-05-05 09:17 | 49.74659 | 3.27732 | 27087 ft | 465 kts | 202° |
| 2026-05-05 09:18 | 49.71694 | 3.25777 | 27459 ft | 463 kts | 202° |
| 2026-05-05 09:18 | 49.68733 | 3.23828 | 27839 ft | 461 kts | 202° |
| 2026-05-05 09:18 | 49.65781 | 3.21888 | 28222 ft | 459 kts | 202° |
| 2026-05-05 09:18 | 49.62849 | 3.19965 | 28611 ft | 457 kts | 202° |
| 2026-05-05 09:19 | 49.59921 | 3.18046 | 28991 ft | 456 kts | 202° |
| 2026-05-05 09:19 | 49.57003 | 3.16136 | 29375 ft | 454 kts | 202° |
| 2026-05-05 09:19 | 49.54137 | 3.14262 | 29750 ft | 452 kts | 202° |
| 2026-05-05 09:19 | 49.51242 | 3.12372 | 30108 ft | 450 kts | 202° |
| 2026-05-05 09:20 | 49.48429 | 3.10247 | 30425 ft | 450 kts | 208° |
| 2026-05-05 09:20 | 49.45754 | 3.07744 | 30766 ft | 448 kts | 210° |
| 2026-05-05 09:20 | 49.43135 | 3.05166 | 31108 ft | 446 kts | 211° |
| 2026-05-05 09:20 | 49.40542 | 3.02546 | 31429 ft | 445 kts | 212° |
| 2026-05-05 09:21 | 49.37964 | 2.99912 | 31746 ft | 444 kts | 212° |
| 2026-05-05 09:21 | 49.35404 | 2.97291 | 32057 ft | 442 kts | 212° |
| 2026-05-05 09:21 | 49.32846 | 2.94679 | 32367 ft | 441 kts | 212° |
| 2026-05-05 09:21 | 49.30316 | 2.92109 | 32550 ft | 443 kts | 212° |
| 2026-05-05 09:22 | 49.27745 | 2.89505 | 32755 ft | 443 kts | 211° |
| 2026-05-05 09:22 | 49.25166 | 2.86901 | 32930 ft | 443 kts | 211° |
| 2026-05-05 09:22 | 49.22603 | 2.84319 | 32951 ft | 439 kts | 211° |
| 2026-05-05 09:23 | 49.17746 | 2.79436 | 32955 ft | 436 kts | 211° |
| 2026-05-05 09:23 | 49.12755 | 2.74434 | 32944 ft | 436 kts | 211° |
| 2026-05-05 09:24 | 49.07770 | 2.69448 | 32942 ft | 437 kts | 211° |
| 2026-05-05 09:24 | 49.02679 | 2.64367 | 32944 ft | 437 kts | 211° |
| 2026-05-05 09:25 | 48.97579 | 2.59290 | 32939 ft | 437 kts | 211° |
| 2026-05-05 09:25 | 48.92515 | 2.54261 | 32940 ft | 438 kts | 211° |
| 2026-05-05 09:26 | 48.87401 | 2.49195 | 32943 ft | 438 kts | 211° |
| 2026-05-05 09:26 | 48.82281 | 2.44129 | 32927 ft | 439 kts | 211° |
| 2026-05-05 09:27 | 48.77156 | 2.39076 | 32939 ft | 439 kts | 211° |
| 2026-05-05 09:27 | 48.72392 | 2.34395 | 32941 ft | 439 kts | 211° |
| 2026-05-05 09:28 | 48.67299 | 2.29400 | 32951 ft | 439 kts | 210° |
| 2026-05-05 09:28 | 48.62159 | 2.24370 | 32940 ft | 439 kts | 210° |
| 2026-05-05 09:29 | 48.56896 | 2.19849 | 32935 ft | 437 kts | 201° |
| 2026-05-05 09:29 | 48.51104 | 2.17253 | 32932 ft | 435 kts | 192° |
| 2026-05-05 09:30 | 48.45136 | 2.15290 | 32924 ft | 435 kts | 190° |
| 2026-05-05 09:30 | 48.39191 | 2.13444 | 32923 ft | 436 kts | 190° |
| 2026-05-05 09:31 | 48.33244 | 2.11572 | 32918 ft | 436 kts | 190° |
| 2026-05-05 09:31 | 48.27263 | 2.10535 | 32872 ft | 435 kts | 178° |
| 2026-05-05 09:32 | 48.21237 | 2.11390 | 32823 ft | 436 kts | 172° |
| 2026-05-05 09:32 | 48.15215 | 2.12673 | 32821 ft | 436 kts | 172° |
| 2026-05-05 09:33 | 48.09153 | 2.13396 | 32827 ft | 437 kts | 176° |
| 2026-05-05 09:33 | 48.03073 | 2.13809 | 32828 ft | 437 kts | 177° |
| 2026-05-05 09:34 | 47.97024 | 2.14147 | 32829 ft | 438 kts | 177° |
| 2026-05-05 09:34 | 47.90932 | 2.14488 | 32830 ft | 438 kts | 177° |
| 2026-05-05 09:35 | 47.84833 | 2.14840 | 32833 ft | 438 kts | 177° |
| 2026-05-05 09:35 | 47.75686 | 2.15375 | 32825 ft | 438 kts | 177° |
| 2026-05-05 09:36 | 47.69626 | 2.15729 | 32830 ft | 438 kts | 177° |
| 2026-05-05 09:36 | 47.63533 | 2.16083 | 32820 ft | 438 kts | 177° |
| 2026-05-05 09:37 | 47.57445 | 2.16435 | 32821 ft | 438 kts | 177° |
| 2026-05-05 09:37 | 47.51345 | 2.16788 | 32819 ft | 438 kts | 177° |
| 2026-05-05 09:38 | 47.45244 | 2.17140 | 32822 ft | 438 kts | 177° |
| 2026-05-05 09:38 | 47.39146 | 2.17492 | 32826 ft | 438 kts | 177° |
| 2026-05-05 09:39 | 47.33082 | 2.17841 | 32829 ft | 439 kts | 177° |
| 2026-05-05 09:39 | 47.26970 | 2.18191 | 32836 ft | 440 kts | 176° |
| 2026-05-05 09:40 | 47.20852 | 2.18541 | 32830 ft | 440 kts | 176° |
| 2026-05-05 09:40 | 47.14729 | 2.18889 | 32838 ft | 440 kts | 176° |
| 2026-05-05 09:41 | 47.08649 | 2.19833 | 32840 ft | 440 kts | 166° |
| 2026-05-05 09:41 | 47.02851 | 2.22669 | 32841 ft | 440 kts | 159° |
| 2026-05-05 09:42 | 46.97161 | 2.25985 | 32848 ft | 440 kts | 158° |
| 2026-05-05 09:42 | 46.91481 | 2.29364 | 32848 ft | 440 kts | 158° |
| 2026-05-05 09:43 | 46.85793 | 2.32706 | 32845 ft | 441 kts | 158° |
| 2026-05-05 09:43 | 46.80094 | 2.36019 | 32851 ft | 441 kts | 159° |
| 2026-05-05 09:44 | 46.75353 | 2.38761 | 32846 ft | 441 kts | 159° |
| 2026-05-05 09:44 | 46.69645 | 2.42057 | 32854 ft | 441 kts | 159° |
| 2026-05-05 09:45 | 46.63002 | 2.45883 | 32849 ft | 441 kts | 159° |
| 2026-05-05 09:45 | 46.58212 | 2.48637 | 32857 ft | 442 kts | 159° |
| 2026-05-05 09:46 | 46.52513 | 2.51907 | 32857 ft | 442 kts | 159° |
| 2026-05-05 09:46 | 46.46781 | 2.55189 | 32858 ft | 443 kts | 159° |
| 2026-05-05 09:47 | 46.41045 | 2.58466 | 32860 ft | 443 kts | 159° |
| 2026-05-05 09:47 | 46.35305 | 2.61737 | 32863 ft | 443 kts | 159° |
| 2026-05-05 09:48 | 46.29559 | 2.65004 | 32865 ft | 444 kts | 159° |
| 2026-05-05 09:48 | 46.23811 | 2.68265 | 32870 ft | 443 kts | 159° |
| 2026-05-05 09:49 | 46.18054 | 2.71523 | 32871 ft | 444 kts | 159° |
| 2026-05-05 09:49 | 46.12328 | 2.74757 | 32876 ft | 444 kts | 160° |
| 2026-05-05 09:50 | 46.06566 | 2.78004 | 32873 ft | 445 kts | 160° |
| 2026-05-05 09:50 | 46.00795 | 2.81248 | 32881 ft | 445 kts | 160° |
| 2026-05-05 09:51 | 45.94994 | 2.84393 | 32889 ft | 445 kts | 161° |
| 2026-05-05 09:51 | 45.89179 | 2.87448 | 32895 ft | 445 kts | 161° |
| 2026-05-05 09:52 | 45.83395 | 2.90475 | 32901 ft | 445 kts | 161° |
| 2026-05-05 09:52 | 45.77537 | 2.93517 | 32899 ft | 444 kts | 164° |
| 2026-05-05 09:53 | 45.71534 | 2.95082 | 32906 ft | 442 kts | 178° |
| 2026-05-05 09:53 | 45.65394 | 2.95153 | 32904 ft | 441 kts | 182° |
| 2026-05-05 09:54 | 45.59250 | 2.94944 | 32897 ft | 441 kts | 182° |
| 2026-05-05 09:54 | 45.53112 | 2.94724 | 32898 ft | 441 kts | 182° |
| 2026-05-05 09:55 | 45.46973 | 2.94540 | 32896 ft | 441 kts | 182° |
| 2026-05-05 09:55 | 45.40832 | 2.94377 | 32892 ft | 441 kts | 182° |
| 2026-05-05 09:56 | 45.34733 | 2.94219 | 32895 ft | 441 kts | 182° |
| 2026-05-05 09:56 | 45.28591 | 2.94059 | 32900 ft | 441 kts | 183° |
| 2026-05-05 09:57 | 45.22463 | 2.93900 | 32904 ft | 440 kts | 183° |
| 2026-05-05 09:57 | 45.16331 | 2.93740 | 32912 ft | 440 kts | 183° |
| 2026-05-05 09:58 | 45.10209 | 2.93580 | 32916 ft | 440 kts | 183° |
| 2026-05-05 09:58 | 45.04097 | 2.93419 | 32918 ft | 439 kts | 184° |
| 2026-05-05 09:59 | 44.98021 | 2.93262 | 32915 ft | 438 kts | 184° |
| 2026-05-05 09:59 | 44.91934 | 2.93104 | 32927 ft | 437 kts | 184° |
| 2026-05-05 10:00 | 44.85844 | 2.92945 | 32925 ft | 437 kts | 184° |
| 2026-05-05 10:00 | 44.79787 | 2.92620 | 32849 ft | 433 kts | 186° |
| 2026-05-05 10:01 | 44.76786 | 2.92394 | 32576 ft | 430 kts | 186° |
| 2026-05-05 10:01 | 44.73786 | 2.92156 | 32347 ft | 431 kts | 186° |
| 2026-05-05 10:01 | 44.67835 | 2.91691 | 32350 ft | 431 kts | 186° |
| 2026-05-05 10:02 | 44.61843 | 2.91239 | 32347 ft | 431 kts | 186° |
| 2026-05-05 10:02 | 44.55850 | 2.90801 | 32359 ft | 431 kts | 186° |
| 2026-05-05 10:03 | 44.49866 | 2.90367 | 32361 ft | 430 kts | 186° |
| 2026-05-05 10:03 | 44.43923 | 2.89938 | 32362 ft | 429 kts | 187° |
| 2026-05-05 10:04 | 44.37959 | 2.89509 | 32362 ft | 429 kts | 187° |
| 2026-05-05 10:04 | 44.31997 | 2.89078 | 32365 ft | 428 kts | 187° |
| 2026-05-05 10:05 | 44.26051 | 2.88649 | 32356 ft | 428 kts | 187° |
| 2026-05-05 10:05 | 44.20103 | 2.88221 | 32363 ft | 427 kts | 187° |
| 2026-05-05 10:06 | 44.14172 | 2.87795 | 32363 ft | 426 kts | 187° |
| 2026-05-05 10:06 | 44.08251 | 2.87371 | 32357 ft | 425 kts | 188° |
| 2026-05-05 10:07 | 44.02382 | 2.86943 | 32367 ft | 424 kts | 188° |
| 2026-05-05 10:07 | 43.96485 | 2.86521 | 32363 ft | 424 kts | 188° |
| 2026-05-05 10:08 | 43.90598 | 2.86107 | 32363 ft | 424 kts | 188° |
| 2026-05-05 10:08 | 43.84875 | 2.85703 | 32363 ft | 422 kts | 188° |
| 2026-05-05 10:09 | 43.79013 | 2.85289 | 32369 ft | 422 kts | 188° |
| 2026-05-05 10:09 | 43.73166 | 2.85173 | 32360 ft | 423 kts | 186° |
| 2026-05-05 10:10 | 43.67263 | 2.85308 | 32363 ft | 423 kts | 185° |
| 2026-05-05 10:10 | 43.61373 | 2.85450 | 32360 ft | 422 kts | 186° |
| 2026-05-05 10:11 | 43.55545 | 2.85557 | 32361 ft | 421 kts | 186° |
| 2026-05-05 10:11 | 43.49686 | 2.85643 | 32222 ft | 421 kts | 186° |
| 2026-05-05 10:12 | 43.46752 | 2.85680 | 31957 ft | 421 kts | 186° |
| 2026-05-05 10:12 | 43.43818 | 2.85719 | 31696 ft | 421 kts | 187° |
| 2026-05-05 10:12 | 43.40892 | 2.85762 | 31441 ft | 421 kts | 187° |
| 2026-05-05 10:12 | 43.37966 | 2.85809 | 31188 ft | 420 kts | 187° |
| 2026-05-05 10:13 | 43.35043 | 2.85854 | 30936 ft | 419 kts | 187° |
| 2026-05-05 10:13 | 43.32125 | 2.85899 | 30689 ft | 419 kts | 187° |
| 2026-05-05 10:13 | 43.29207 | 2.85941 | 30435 ft | 419 kts | 187° |
| 2026-05-05 10:13 | 43.26293 | 2.85983 | 30193 ft | 419 kts | 187° |
| 2026-05-05 10:14 | 43.23411 | 2.86023 | 29947 ft | 419 kts | 187° |
| 2026-05-05 10:14 | 43.20496 | 2.86062 | 29655 ft | 419 kts | 187° |
| 2026-05-05 10:14 | 43.17570 | 2.86101 | 29369 ft | 420 kts | 187° |
| 2026-05-05 10:14 | 43.14642 | 2.86140 | 29089 ft | 421 kts | 187° |
| 2026-05-05 10:15 | 43.11704 | 2.86180 | 28812 ft | 422 kts | 187° |
| 2026-05-05 10:15 | 43.08759 | 2.86223 | 28537 ft | 424 kts | 187° |
| 2026-05-05 10:15 | 43.05832 | 2.86270 | 28266 ft | 424 kts | 187° |
| 2026-05-05 10:15 | 43.02877 | 2.86313 | 27988 ft | 423 kts | 187° |
| 2026-05-05 10:16 | 42.99930 | 2.86353 | 27717 ft | 422 kts | 187° |
| 2026-05-05 10:16 | 42.96999 | 2.86396 | 27449 ft | 421 kts | 187° |
| 2026-05-05 10:16 | 42.94072 | 2.86438 | 27185 ft | 419 kts | 187° |
| 2026-05-05 10:16 | 42.91155 | 2.86480 | 26915 ft | 419 kts | 187° |
| 2026-05-05 10:17 | 42.88244 | 2.86521 | 26651 ft | 417 kts | 187° |
| 2026-05-05 10:17 | 42.85343 | 2.86564 | 26393 ft | 416 kts | 187° |
| 2026-05-05 10:17 | 42.82487 | 2.86605 | 26136 ft | 414 kts | 187° |
| 2026-05-05 10:17 | 42.79602 | 2.86645 | 25877 ft | 413 kts | 187° |
| 2026-05-05 10:18 | 42.76735 | 2.86685 | 25629 ft | 412 kts | 187° |
| 2026-05-05 10:18 | 42.73902 | 2.86514 | 25325 ft | 402 kts | 191° |
| 2026-05-05 10:18 | 42.71145 | 2.86233 | 24841 ft | 394 kts | 191° |
| 2026-05-05 10:18 | 42.68435 | 2.85931 | 24330 ft | 388 kts | 191° |
| 2026-05-05 10:19 | 42.65758 | 2.85624 | 23816 ft | 383 kts | 191° |
| 2026-05-05 10:19 | 42.63117 | 2.85316 | 23273 ft | 379 kts | 191° |
| 2026-05-05 10:19 | 42.60498 | 2.85009 | 22739 ft | 373 kts | 191° |
| 2026-05-05 10:19 | 42.57960 | 2.84713 | 22262 ft | 368 kts | 191° |
| 2026-05-05 10:20 | 42.55411 | 2.84414 | 21812 ft | 366 kts | 191° |
| 2026-05-05 10:20 | 42.52918 | 2.84126 | 21691 ft | 352 kts | 191° |
| 2026-05-05 10:20 | 42.50517 | 2.83850 | 21596 ft | 339 kts | 191° |
| 2026-05-05 10:20 | 42.48200 | 2.83584 | 21476 ft | 329 kts | 191° |
| 2026-05-05 10:21 | 42.45952 | 2.83316 | 21329 ft | 319 kts | 192° |
| 2026-05-05 10:21 | 42.43767 | 2.82893 | 20934 ft | 316 kts | 195° |
| 2026-05-05 10:21 | 42.41625 | 2.82369 | 20536 ft | 316 kts | 196° |
| 2026-05-05 10:21 | 42.39462 | 2.81826 | 20150 ft | 315 kts | 196° |
| 2026-05-05 10:22 | 42.37306 | 2.81288 | 19748 ft | 315 kts | 195° |
| 2026-05-05 10:22 | 42.35155 | 2.80754 | 19351 ft | 313 kts | 195° |
| 2026-05-05 10:22 | 42.33013 | 2.80226 | 18967 ft | 311 kts | 195° |
| 2026-05-05 10:22 | 42.30887 | 2.79702 | 18591 ft | 311 kts | 195° |
| 2026-05-05 10:23 | 42.28758 | 2.79179 | 18204 ft | 310 kts | 195° |
| 2026-05-05 10:23 | 42.26634 | 2.78659 | 17776 ft | 309 kts | 194° |
| 2026-05-05 10:23 | 42.24531 | 2.78145 | 17417 ft | 305 kts | 194° |
| 2026-05-05 10:23 | 42.22443 | 2.77634 | 16954 ft | 305 kts | 194° |
| 2026-05-05 10:24 | 42.20368 | 2.77124 | 16663 ft | 299 kts | 194° |
| 2026-05-05 10:24 | 42.18352 | 2.76633 | 16506 ft | 290 kts | 194° |
| 2026-05-05 10:24 | 42.16422 | 2.76163 | 16336 ft | 281 kts | 194° |
| 2026-05-05 10:24 | 42.14527 | 2.75702 | 16176 ft | 272 kts | 194° |
| 2026-05-05 10:25 | 42.12682 | 2.75252 | 15958 ft | 266 kts | 194° |
| 2026-05-05 10:25 | 42.10871 | 2.74810 | 15640 ft | 263 kts | 194° |
| 2026-05-05 10:25 | 42.09075 | 2.74368 | 15312 ft | 262 kts | 194° |
| 2026-05-05 10:25 | 42.07270 | 2.73925 | 14946 ft | 263 kts | 194° |
| 2026-05-05 10:26 | 42.05468 | 2.73486 | 14632 ft | 262 kts | 193° |
| 2026-05-05 10:26 | 42.03686 | 2.73053 | 14327 ft | 260 kts | 193° |
| 2026-05-05 10:26 | 42.01907 | 2.72619 | 13997 ft | 259 kts | 193° |
| 2026-05-05 10:26 | 42.00136 | 2.72189 | 13682 ft | 258 kts | 193° |
| 2026-05-05 10:27 | 41.98379 | 2.71762 | 13349 ft | 256 kts | 193° |
| 2026-05-05 10:27 | 41.96632 | 2.71338 | 12950 ft | 257 kts | 193° |
| 2026-05-05 10:27 | 41.94872 | 2.70911 | 12588 ft | 257 kts | 193° |
| 2026-05-05 10:27 | 41.93119 | 2.70487 | 12268 ft | 255 kts | 193° |
| 2026-05-05 10:28 | 41.91378 | 2.70065 | 11937 ft | 253 kts | 193° |
| 2026-05-05 10:28 | 41.89646 | 2.69644 | 11597 ft | 252 kts | 194° |
| 2026-05-05 10:28 | 41.87922 | 2.69226 | 11253 ft | 252 kts | 194° |
| 2026-05-05 10:28 | 41.86199 | 2.68808 | 10927 ft | 251 kts | 194° |
| 2026-05-05 10:29 | 41.84484 | 2.68394 | 10604 ft | 250 kts | 194° |
| 2026-05-05 10:29 | 41.82799 | 2.67987 | 10275 ft | 249 kts | 194° |
| 2026-05-05 10:29 | 41.81095 | 2.67575 | 9942 ft | 248 kts | 194° |
| 2026-05-05 10:29 | 41.79398 | 2.67164 | 9596 ft | 248 kts | 194° |
| 2026-05-05 10:30 | 41.77699 | 2.66755 | 9256 ft | 247 kts | 194° |
| 2026-05-05 10:30 | 41.76010 | 2.66349 | 8916 ft | 246 kts | 194° |
| 2026-05-05 10:30 | 41.74322 | 2.65942 | 8577 ft | 246 kts | 193° |
| 2026-05-05 10:30 | 41.72646 | 2.65535 | 8278 ft | 244 kts | 194° |
| 2026-05-05 10:31 | 41.71007 | 2.65062 | 7921 ft | 244 kts | 197° |
| 2026-05-05 10:31 | 41.69373 | 2.64454 | 7606 ft | 243 kts | 200° |
| 2026-05-05 10:31 | 41.67765 | 2.63746 | 7260 ft | 244 kts | 197° |
| 2026-05-05 10:31 | 41.66060 | 2.63513 | 6861 ft | 249 kts | 187° |
| 2026-05-05 10:32 | 41.64416 | 2.62929 | 6524 ft | 244 kts | 212° |
| 2026-05-05 10:32 | 41.63074 | 2.61583 | 6302 ft | 239 kts | 224° |
| 2026-05-05 10:32 | 41.61907 | 2.60003 | 5984 ft | 238 kts | 228° |
| 2026-05-05 10:32 | 41.60793 | 2.58391 | 5691 ft | 233 kts | 228° |
| 2026-05-05 10:33 | 41.59671 | 2.56824 | 5243 ft | 235 kts | 226° |
| 2026-05-05 10:33 | 41.58895 | 2.55803 | 4927 ft | 236 kts | 226° |
| 2026-05-05 10:33 | 41.57686 | 2.54307 | 4484 ft | 237 kts | 224° |
| 2026-05-05 10:33 | 41.56444 | 2.52856 | 4060 ft | 237 kts | 221° |
| 2026-05-05 10:34 | 41.55203 | 2.51460 | 3829 ft | 228 kts | 221° |
| 2026-05-05 10:34 | 41.54011 | 2.50143 | 3683 ft | 217 kts | 221° |
| 2026-05-05 10:34 | 41.52866 | 2.48884 | 3495 ft | 210 kts | 221° |
| 2026-05-05 10:34 | 41.51749 | 2.47652 | 3206 ft | 208 kts | 221° |
| 2026-05-05 10:35 | 41.50642 | 2.46426 | 2973 ft | 205 kts | 221° |
| 2026-05-05 10:35 | 41.49544 | 2.45206 | 2957 ft | 205 kts | 221° |
| 2026-05-05 10:35 | 41.48448 | 2.43985 | 2954 ft | 205 kts | 221° |
| 2026-05-05 10:35 | 41.47348 | 2.42761 | 2956 ft | 206 kts | 221° |
| 2026-05-05 10:36 | 41.46250 | 2.41541 | 2945 ft | 205 kts | 221° |
| 2026-05-05 10:36 | 41.45171 | 2.40342 | 2956 ft | 205 kts | 221° |
| 2026-05-05 10:36 | 41.44075 | 2.39123 | 2732 ft | 207 kts | 221° |
| 2026-05-05 10:36 | 41.42973 | 2.37896 | 2420 ft | 205 kts | 221° |
| 2026-05-05 10:37 | 41.41883 | 2.36683 | 2268 ft | 203 kts | 221° |
| 2026-05-05 10:37 | 41.40796 | 2.35476 | 2264 ft | 203 kts | 221° |
| 2026-05-05 10:37 | 41.39709 | 2.34269 | 2256 ft | 203 kts | 221° |
| 2026-05-05 10:37 | 41.38664 | 2.33017 | 2256 ft | 201 kts | 229° |
| 2026-05-05 10:38 | 41.37852 | 2.31506 | 2256 ft | 198 kts | 240° |
| 2026-05-05 10:38 | 41.37262 | 2.29933 | 2259 ft | 182 kts | 246° |
| 2026-05-05 10:38 | 41.36757 | 2.28433 | 2260 ft | 180 kts | 246° |
| 2026-05-05 10:38 | 41.36238 | 2.26893 | 2261 ft | 184 kts | 246° |
| 2026-05-05 10:39 | 41.35701 | 2.25347 | 2263 ft | 185 kts | 245° |
| 2026-05-05 10:39 | 41.35170 | 2.23828 | 2251 ft | 176 kts | 245° |
| 2026-05-05 10:39 | 41.34662 | 2.22359 | 2013 ft | 173 kts | 246° |
| 2026-05-05 10:39 | 41.34176 | 2.20931 | 1767 ft | 165 kts | 245° |
| 2026-05-05 10:40 | 41.33714 | 2.19575 | 1541 ft | 156 kts | 245° |
| 2026-05-05 10:40 | 41.33282 | 2.18307 | 1335 ft | 145 kts | 245° |
| 2026-05-05 10:40 | 41.32874 | 2.17114 | 1149 ft | 140 kts | 245° |
| 2026-05-05 10:40 | 41.32471 | 2.15930 | 964 ft | 141 kts | 245° |
| 2026-05-05 10:41 | 41.32065 | 2.14740 | 767 ft | 143 kts | 246° |
| 2026-05-05 10:41 | 41.31659 | 2.13551 | 579 ft | 144 kts | 246° |
| 2026-05-05 10:41 | 41.31240 | 2.12323 | 387 ft | 146 kts | 247° |
| 2026-05-05 10:41 | 41.30811 | 2.11086 | 200 ft | 149 kts | 246° |
| 2026-05-05 10:42 | 41.30056 | 2.08865 | 28 ft | 84 kts | 244° |
| 2026-05-05 10:42 | 41.29943 | 2.08514 | 30 ft | 7 kts | 256° |
| 2026-05-05 10:42 | 41.29936 | 2.08392 | 30 ft | 18 kts | 263° |
| 2026-05-05 10:43 | 41.29931 | 2.08224 | 28 ft | 19 kts | 271° |
| 2026-05-05 10:43 | 41.29939 | 2.08069 | 28 ft | 8 kts | 301° |
| 2026-05-05 10:43 | 41.29965 | 2.08042 | 29 ft | 4 kts | 326° |
| 2026-05-05 10:43 | 41.29987 | 2.08023 | 26 ft | 3 kts | 328° |
| 2026-05-05 10:44 | 41.30002 | 2.08012 | 27 ft | 2 kts | 331° |
| 2026-05-05 10:44 | 41.30009 | 2.08006 | 27 ft | 2 kts | 321° |
| 2026-05-05 10:44 | 41.30002 | 2.07972 | 24 ft | 6 kts | 248° |
| 2026-05-05 10:44 | 41.29986 | 2.07920 | 23 ft | 6 kts | 248° |
| 2026-05-05 10:45 | 41.29959 | 2.07853 | 24 ft | 10 kts | 244° |
| 2026-05-05 10:45 | 41.29930 | 2.07770 | 24 ft | 10 kts | 244° |
| 2026-05-05 10:45 | 41.29903 | 2.07693 | 25 ft | 9 kts | 245° |
| 2026-05-05 10:45 | 41.29878 | 2.07621 | 24 ft | 8 kts | 245° |
| 2026-05-05 10:46 | 41.29849 | 2.07537 | 23 ft | 16 kts | 245° |
| 2026-05-05 10:46 | 41.29805 | 2.07405 | 24 ft | 15 kts | 245° |
| 2026-05-05 10:46 | 41.29756 | 2.07263 | 25 ft | 18 kts | 245° |
| 2026-05-05 10:46 | 41.29706 | 2.07114 | 24 ft | 17 kts | 245° |
| 2026-05-05 10:47 | 41.29655 | 2.06976 | 26 ft | 16 kts | 243° |
| 2026-05-05 10:47 | 41.29634 | 2.06846 | 24 ft | 14 kts | 300° |
| 2026-05-05 10:47 | 41.29669 | 2.06771 | 26 ft | 5 kts | 298° |
| 2026-05-05 10:47 | 41.29669 | 2.06751 | 27 ft | 4 kts | 248° |
| 2026-05-05 10:48 | 41.29642 | 2.06697 | 25 ft | 10 kts | 240° |
| 2026-05-05 10:48 | 41.29611 | 2.06611 | 25 ft | 11 kts | 250° |
| 2026-05-05 10:48 | 41.29617 | 2.06520 | 25 ft | 9 kts | 300° |
| 2026-05-05 10:48 | 41.29657 | 2.06486 | 26 ft | 6 kts | 335° |
| 2026-05-05 10:49 | 41.29696 | 2.06462 | 27 ft | 5 kts | 335° |
| 2026-05-05 10:49 | 41.29732 | 2.06440 | 28 ft | 5 kts | 335° |
| 2026-05-05 10:49 | 41.29758 | 2.06424 | 29 ft | 3 kts | 335° |
| 2026-05-05 10:49 | 41.29782 | 2.06416 | 27 ft | 3 kts | 355° |
| 2026-05-05 10:50 | 41.29798 | 2.06424 | 27 ft | 4 kts | 28° |
| 2026-05-05 10:50 | 41.29809 | 2.06443 | 27 ft | 2 kts | 58° |
| 2026-05-05 10:50 | 41.29814 | 2.06455 | 27 ft | 1 kts | 63° |
| 2026-05-05 10:50 | 41.29816 | 2.06461 | 27 ft | 0 kts | 63° |
| 2026-05-05 10:51 | 41.29817 | 2.06464 | 27 ft | 0 kts | 63° |
| 2026-05-05 10:51 | 41.29818 | 2.06467 | 27 ft | 0 kts | 64° |